Time;durP1;ratioP1;P1;durP2;ratioP2;P2;SDS_P1;SDS_P2;PMS_P1;PMS_P2;Temp;Humidity;BMP_temperature;BMP_pressure;BME280_temperature;BME280_humidity;BME280_pressure;Samples;Min_cycle;Max_cycle;Signal;HPM_P1;HPM_P2
2021/01/06 00:00:06;;;;;;;14.48;9.20;;;5.30;96.60;;;5.41;79.74;100533.13;4992215;28;20056;-78
2021/01/06 00:02:39;;;;;;;16.48;8.82;;;5.30;96.60;;;5.42;79.92;100528.56;4987389;28;20057;-78
2021/01/06 00:05:08;;;;;;;14.95;9.23;;;5.50;96.60;;;5.43;79.85;100528.44;4972400;28;20054;-78
2021/01/06 00:07:35;;;;;;;17.63;10.30;;;5.30;96.70;;;5.43;79.97;100523.03;4954860;28;20483;-78
2021/01/06 00:10:03;;;;;;;16.40;9.38;;;5.30;96.80;;;5.38;80.20;100528.03;4972192;28;20046;-78
2021/01/06 00:12:30;;;;;;;14.07;9.15;;;5.40;96.70;;;5.43;80.08;100525.75;4972347;28;20043;-78
2021/01/06 00:14:56;;;;;;;16.73;9.35;;;5.40;96.50;;;5.46;80.05;100528.16;4972170;28;20590;-78
2021/01/06 00:17:24;;;;;;;16.02;9.50;;;5.40;96.50;;;5.46;79.99;100524.56;4972190;28;20141;-78
2021/01/06 00:19:51;;;;;;;15.15;8.85;;;5.40;96.40;;;5.44;79.91;100521.19;4972925;28;20062;-78
2021/01/06 00:22:17;;;;;;;18.00;9.00;;;5.40;96.10;;;5.44;79.88;100518.47;4971914;28;20569;-78
2021/01/06 00:24:44;;;;;;;16.05;9.15;;;5.30;96.30;;;5.44;79.99;100522.03;4954418;28;20507;-78
2021/01/06 00:27:11;;;;;;;15.00;8.60;;;5.50;96.50;;;5.45;80.08;100521.03;4971314;28;20038;-78
2021/01/06 00:29:38;;;;;;;17.10;8.57;;;5.40;96.20;;;5.45;80.24;100526.44;4971293;28;20126;-78
2021/01/06 00:32:05;;;;;;;14.43;8.75;;;5.40;96.40;;;5.42;80.06;100524.03;4954231;28;20514;-78
2021/01/06 00:34:33;;;;;;;12.57;7.53;;;5.30;96.30;;;5.40;79.99;100520.63;4971947;28;20074;-78
2021/01/06 00:36:59;;;;;;;13.48;8.27;;;5.40;96.20;;;5.40;80.28;100519.78;4972646;28;20070;-78
2021/01/06 00:39:26;;;;;;;14.30;8.10;;;5.30;96.50;;;5.43;80.21;100517.63;4972059;28;20582;-78
2021/01/06 00:41:53;;;;;;;16.25;8.10;;;5.30;96.50;;;5.46;80.08;100520.03;4954265;28;20061;-78
2021/01/06 00:44:20;;;;;;;15.57;8.50;;;5.30;96.50;;;5.47;80.01;100510.94;4954271;28;20046;-78
2021/01/06 00:46:46;;;;;;;14.23;7.97;;;5.40;96.40;;;5.48;80.01;100511.78;4971316;28;20511;-78
2021/01/06 00:49:13;;;;;;;15.80;8.85;;;5.40;96.40;;;5.47;79.95;100508.22;4954447;28;20399;-78
2021/01/06 00:51:46;;;;;;;13.70;7.95;;;5.40;96.30;;;5.46;79.97;100511.94;4954392;28;20500;-78
2021/01/06 00:54:13;;;;;;;13.85;8.50;;;5.30;96.50;;;5.49;80.09;100508.09;4955349;28;20047;-78
2021/01/06 00:56:40;;;;;;;13.85;8.10;;;5.30;96.60;;;5.51;80.01;100510.66;4953994;28;20081;-78
2021/01/06 00:59:12;;;;;;;13.73;7.28;;;5.40;96.60;;;5.52;79.97;100517.72;4972135;28;20045;-78
2021/01/06 01:01:39;;;;;;;13.07;7.78;;;5.30;96.60;;;5.51;79.76;100511.47;4954070;28;20097;-78
2021/01/06 01:04:06;;;;;;;14.77;7.65;;;5.30;96.50;;;5.52;79.54;100506.94;4953995;28;20082;-79
2021/01/06 01:06:34;;;;;;;15.32;8.30;;;5.30;96.60;;;5.49;80.34;100506.22;4971280;28;20046;-78
2021/01/06 01:09:01;;;;;;;13.80;8.65;;;5.30;96.60;;;5.52;80.00;100509.63;4971427;28;20504;-78
2021/01/06 01:11:28;;;;;;;13.70;7.97;;;5.40;96.60;;;5.53;80.02;100505.94;4972596;28;20419;-78
2021/01/06 01:13:55;;;;;;;16.13;8.10;;;5.40;96.40;;;5.51;80.02;100506.09;4971502;28;20066;-78
2021/01/06 01:16:22;;;;;;;12.40;7.20;;;5.30;96.70;;;5.52;79.72;100512.31;4971347;28;20407;-78
2021/01/06 01:18:49;;;;;;;14.27;7.97;;;5.30;96.90;;;5.49;79.92;100503.53;4954240;28;20086;-78
2021/01/06 01:21:22;;;;;;;12.85;7.65;;;5.20;96.80;;;5.46;79.84;100500.28;4971909;28;20522;-78
2021/01/06 01:23:49;;;;;;;12.15;7.43;;;5.30;97.20;;;5.45;80.06;100510.25;4971731;28;20129;-78
2021/01/06 01:26:16;;;;;;;13.15;7.55;;;5.30;97.10;;;5.48;80.08;100503.69;4971844;28;20046;-78
2021/01/06 01:28:43;;;;;;;14.10;7.53;;;5.30;97.00;;;5.47;79.83;100510.09;4972408;28;20082;-77
2021/01/06 01:31:10;;;;;;;12.80;7.07;;;5.30;96.90;;;5.44;80.05;100511.22;4990648;28;20136;-78
2021/01/06 01:33:36;;;;;;;12.70;7.65;;;5.40;96.80;;;5.41;80.12;100514.25;4990587;28;20462;-78
2021/01/06 01:36:04;;;;;;;13.80;7.63;;;5.40;96.70;;;5.42;80.72;100507.81;4990361;28;20078;-78
2021/01/06 01:38:31;;;;;;;12.45;6.90;;;5.40;96.50;;;5.47;80.12;100510.94;4990529;28;20042;-78
2021/01/06 01:41:06;;;;;;;12.10;7.55;;;5.40;96.60;;;5.51;80.06;100511.47;4976307;28;20056;-78
2021/01/06 01:43:36;;;;;;;12.18;7.38;;;5.40;96.50;;;5.50;80.17;100512.47;4994961;28;20046;-78
2021/01/06 01:47:02;;;;;;;11.80;7.05;;;5.40;96.60;;;5.52;80.30;100513.19;4992211;28;20121;-78
2021/01/06 01:49:38;;;;;;;11.85;7.22;;;5.40;96.70;;;5.52;80.00;100504.22;4994273;28;20076;-78
2021/01/06 01:52:09;;;;;;;10.95;7.38;;;5.40;96.50;;;5.52;79.81;100504.22;4994288;28;20137;-78
2021/01/06 01:54:36;;;;;;;12.23;7.57;;;5.40;96.60;;;5.53;80.11;100508.63;4991433;28;20090;-78
2021/01/06 01:57:08;;;;;;;12.10;7.55;;;5.50;96.50;;;5.51;79.74;100502.53;4974223;28;20074;-78
2021/01/06 01:59:46;;;;;;;13.45;7.35;;;5.40;96.00;;;5.52;79.92;100498.81;4974665;28;20074;-78
2021/01/06 02:02:21;;;;;;;11.77;7.43;;;5.40;96.20;;;5.54;79.91;100502.22;4992690;28;20129;-78
2021/01/06 02:04:54;;;;;;;11.70;7.15;;;5.40;96.00;;;5.54;79.75;100500.41;4994333;28;20663;-78
2021/01/06 02:07:26;;;;;;;10.98;6.60;;;5.40;95.70;;;5.53;79.48;100495.97;4993454;28;20115;-78
2021/01/06 02:10:00;;;;;;;12.98;7.45;;;5.40;95.90;;;5.56;79.48;100500.22;4993880;28;20133;-78
2021/01/06 02:12:38;;;;;;;12.38;6.93;;;5.40;95.90;;;5.54;79.38;100502.22;4994038;28;20074;-78
2021/01/06 02:15:17;;;;;;;10.95;6.70;;;5.40;95.70;;;5.53;79.57;100498.69;4993863;28;20162;-78
2021/01/06 02:17:44;;;;;;;12.45;7.20;;;5.40;95.60;;;5.56;79.59;100498.38;4991945;28;20121;-78
2021/01/06 02:20:17;;;;;;;11.50;6.93;;;5.50;95.80;;;5.54;79.29;100505.78;4993778;28;20081;-78
2021/01/06 02:22:46;;;;;;;12.93;6.97;;;5.40;95.50;;;5.53;79.16;100492.44;4993931;28;20545;-78
2021/01/06 02:25:14;;;;;;;10.50;6.82;;;5.40;95.60;;;5.52;79.20;100501.53;4993534;28;20774;-78
2021/01/06 02:27:41;;;;;;;12.55;7.32;;;5.40;95.70;;;5.49;79.39;100503.53;4973837;28;20043;-78
2021/01/06 02:30:11;;;;;;;11.20;6.97;;;5.40;95.50;;;5.54;79.59;100496.81;4974257;28;20463;-78
2021/01/06 02:32:39;;;;;;;12.85;6.90;;;5.50;95.60;;;5.54;79.28;100495.00;4974144;28;20066;-78
2021/01/06 02:35:08;;;;;;;12.23;7.00;;;5.40;95.50;;;5.54;79.18;100499.53;4989174;28;20042;-78
2021/01/06 02:37:35;;;;;;;14.02;7.40;;;5.40;95.40;;;5.56;78.99;100497.50;4993012;28;20073;-78
2021/01/06 02:40:03;;;;;;;14.00;6.85;;;5.50;95.40;;;5.56;79.41;100500.22;4975930;28;20060;-78
2021/01/06 02:42:30;;;;;;;11.82;6.93;;;5.50;95.30;;;5.55;79.37;100506.63;4975900;28;20533;-78
2021/01/06 02:44:57;;;;;;;11.65;7.07;;;5.50;95.40;;;5.57;79.24;100504.63;4993387;28;20056;-78
2021/01/06 02:47:25;;;;;;;11.88;6.88;;;5.50;95.10;;;5.58;78.89;100501.78;4993116;28;20114;-78
2021/01/06 02:49:52;;;;;;;12.60;7.10;;;5.50;94.50;;;5.58;78.90;100500.91;4992919;28;20421;-78
2021/01/06 02:52:31;;;;;;;12.77;7.00;;;5.50;94.80;;;5.60;78.71;100507.88;4976364;28;20210;-78
2021/01/06 02:54:58;;;;;;;10.80;6.90;;;5.50;94.60;;;5.61;78.86;100492.50;4973845;28;20097;-78
2021/01/06 02:57:26;;;;;;;11.98;6.70;;;5.50;94.50;;;5.58;78.55;100493.69;4973765;28;20142;-78
2021/01/06 02:59:53;;;;;;;12.65;7.00;;;5.50;94.60;;;5.58;78.78;100490.09;4956398;28;20074;-78
2021/01/06 03:02:23;;;;;;;11.60;7.28;;;5.50;94.70;;;5.59;78.59;100497.22;4973575;28;20086;-78
2021/01/06 03:05:02;;;;;;;14.52;7.50;;;5.50;94.50;;;5.63;78.47;100498.59;4973436;28;20126;-78
2021/01/06 03:07:29;;;;;;;10.68;6.47;;;5.60;94.70;;;5.62;78.68;100495.06;4972883;28;20043;-78
2021/01/06 03:09:57;;;;;;;11.45;7.10;;;5.50;94.60;;;5.65;78.29;100491.19;4987834;28;20563;-78
2021/01/06 03:12:29;;;;;;;12.23;7.45;;;5.50;94.50;;;5.63;77.99;100495.91;4992823;28;20077;-78
2021/01/06 03:14:56;;;;;;;11.18;7.05;;;5.50;94.00;;;5.62;78.15;100508.56;4992340;28;20046;-78
2021/01/06 03:17:24;;;;;;;12.32;7.10;;;5.50;94.20;;;5.64;78.36;100511.13;4992063;28;20087;-78
2021/01/06 03:19:55;;;;;;;11.27;6.90;;;5.50;94.40;;;5.63;78.47;100493.22;4992451;28;20145;-78
2021/01/06 03:22:26;;;;;;;11.38;7.03;;;5.50;94.00;;;5.65;77.69;100493.91;4992829;28;20113;-78
2021/01/06 03:25:07;;;;;;;13.40;7.60;;;5.50;94.00;;;5.62;77.82;100489.66;4992679;28;20129;-78
2021/01/06 03:27:37;;;;;;;12.10;6.90;;;5.50;93.80;;;5.61;77.62;100489.81;4976069;28;20073;-78
2021/01/06 03:30:06;;;;;;;10.85;6.95;;;5.60;94.00;;;5.58;78.10;100503.59;4972609;28;20754;-78
2021/01/06 03:32:43;;;;;;;13.40;7.28;;;5.50;93.90;;;5.55;77.59;100496.69;4972929;28;20102;-78
2021/01/06 03:35:19;;;;;;;14.27;7.70;;;5.40;93.60;;;5.54;77.70;100494.13;4972777;28;20601;-78
2021/01/06 03:37:54;;;;;;;13.35;6.90;;;5.40;93.60;;;5.53;77.76;100493.28;4973061;28;20141;-78
2021/01/06 03:40:27;;;;;;;12.15;7.60;;;5.40;93.80;;;5.55;77.68;100493.13;4973232;28;20133;-78
2021/01/06 03:42:56;;;;;;;12.25;7.25;;;5.40;94.00;;;5.54;78.31;100483.31;4974399;28;20086;-78
2021/01/06 03:45:29;;;;;;;12.45;7.63;;;5.40;94.30;;;5.59;78.09;100491.81;4992200;28;20557;-78
2021/01/06 03:48:03;;;;;;;11.48;6.90;;;5.40;94.40;;;5.56;78.50;100492.13;4989804;28;20145;-78
2021/01/06 03:50:36;;;;;;;12.15;6.88;;;5.50;94.70;;;5.57;78.24;100483.88;4992111;28;20124;-78
2021/01/06 03:53:20;;;;;;;11.15;6.75;;;5.40;94.40;;;5.58;78.48;100484.72;4976335;28;20130;-78
2021/01/06 03:55:52;;;;;;;11.10;6.20;;;5.40;94.50;;;5.58;78.13;100480.19;4972224;28;20070;-78
2021/01/06 03:58:34;;;;;;;12.38;7.00;;;5.50;94.40;;;5.58;78.24;100479.31;4972342;28;20125;-78
2021/01/06 04:01:22;;;;;;;10.38;5.70;;;5.40;94.60;;;5.60;77.99;100477.34;4973532;28;20121;-78
2021/01/06 04:04:00;;;;;;;10.43;6.70;;;5.40;94.40;;;5.60;78.22;100480.03;4972344;28;20122;-78
2021/01/06 04:06:28;;;;;;;11.02;6.65;;;5.40;94.60;;;5.61;78.37;100473.63;4971838;28;20548;-78
2021/01/06 04:08:57;;;;;;;10.55;6.57;;;5.40;94.60;;;5.59;78.09;100472.94;4971959;28;20072;-78
2021/01/06 04:11:28;;;;;;;13.57;6.63;;;5.40;94.40;;;5.58;78.35;100479.31;4972547;28;20169;-78
2021/01/06 04:13:57;;;;;;;10.05;6.45;;;5.40;94.70;;;5.59;78.20;100470.22;4954537;28;20480;-78
2021/01/06 04:16:24;;;;;;;12.38;6.72;;;5.30;94.60;;;5.57;78.03;100472.22;4971743;28;20046;-78
2021/01/06 04:18:51;;;;;;;11.20;6.75;;;5.50;94.90;;;5.59;78.29;100473.75;4973674;28;20070;-78
2021/01/06 04:21:18;;;;;;;10.45;6.32;;;5.40;95.00;;;5.59;78.08;100481.03;4954733;28;20078;-78
2021/01/06 04:23:44;;;;;;;11.80;7.05;;;5.30;95.00;;;5.54;78.12;100465.31;4972112;28;20045;-78
2021/01/06 04:26:14;;;;;;;11.18;6.88;;;5.30;95.00;;;5.54;78.51;100467.13;4971686;28;20135;-78
2021/01/06 04:28:43;;;;;;;12.32;7.18;;;5.30;95.10;;;5.55;78.44;100466.97;4972425;28;20047;-78
2021/01/06 04:31:15;;;;;;;11.18;6.88;;;5.30;95.20;;;5.55;78.17;100471.53;4971882;28;20153;-79
2021/01/06 04:33:44;;;;;;;12.05;7.10;;;5.30;95.00;;;5.55;78.42;100464.28;4972109;28;20086;-78
2021/01/06 04:36:16;;;;;;;11.70;7.18;;;5.30;95.20;;;5.58;78.42;100469.38;4972762;28;20047;-78
2021/01/06 04:38:46;;;;;;;15.52;9.05;;;5.30;95.30;;;5.58;78.37;100474.78;4971730;28;20070;-78
2021/01/06 04:41:34;;;;;;;14.70;8.30;;;5.50;95.10;;;5.56;78.63;100475.91;4973754;28;20074;-78
2021/01/06 04:44:28;;;;;;;15.48;8.93;;;5.40;95.30;;;5.58;78.69;100460.41;4991802;28;20042;-78
2021/01/06 04:47:20;;;;;;;18.85;10.68;;;5.40;95.10;;;5.58;78.47;100472.09;4991773;28;20762;-78
2021/01/06 04:50:10;;;;;;;20.10;10.57;;;5.40;95.10;;;5.56;78.59;100470.53;4991963;28;20058;-79
2021/01/06 04:52:48;;;;;;;18.63;11.20;;;5.30;94.90;;;5.54;78.65;100467.13;4992657;28;20137;-79
2021/01/06 04:55:35;;;;;;;19.70;11.57;;;5.40;95.20;;;5.53;78.70;100460.88;4973813;28;20125;-78
2021/01/06 04:58:25;;;;;;;19.17;10.82;;;5.30;95.00;;;5.53;78.37;100470.84;4973587;28;20083;-79
2021/01/06 05:01:17;;;;;;;19.70;11.20;;;5.30;95.30;;;5.54;78.15;100465.31;4973851;28;20503;-80
2021/01/06 05:04:13;;;;;;;19.15;11.60;;;5.30;95.10;;;5.55;78.15;100479.63;4973075;28;20118;-79
2021/01/06 05:06:56;;;;;;;17.63;11.10;;;5.30;94.80;;;5.56;77.94;100475.91;4973288;28;20073;-79
2021/01/06 05:09:29;;;;;;;18.52;11.27;;;5.30;94.60;;;5.56;77.51;100470.53;4973516;28;20077;-79
2021/01/06 05:12:13;;;;;;;19.33;11.32;;;5.30;94.20;;;5.51;77.83;100468.28;4987564;28;20046;-79
2021/01/06 05:14:50;;;;;;;16.98;11.18;;;5.30;94.40;;;5.52;77.98;100470.00;4994120;28;20154;-80
2021/01/06 05:17:17;;;;;;;20.27;11.75;;;5.40;94.20;;;5.53;77.70;100468.16;4996557;28;20050;-79
2021/01/06 05:19:49;;;;;;;18.67;11.32;;;5.40;93.90;;;5.52;78.19;100463.72;4997269;28;20070;-79
2021/01/06 05:22:16;;;;;;;20.10;11.13;;;5.30;94.10;;;5.48;78.11;100468.59;4996980;28;20078;-80
2021/01/06 05:24:47;;;;;;;17.05;10.68;;;5.40;94.20;;;5.46;77.75;100466.06;4996815;28;20053;-79
2021/01/06 05:27:23;;;;;;;24.60;11.48;;;5.30;93.90;;;5.49;77.68;100471.13;4996351;28;20101;-80
2021/01/06 05:29:53;;;;;;;15.77;10.70;;;5.30;93.80;;;5.49;77.47;100471.13;4977294;28;20485;-79
2021/01/06 05:32:25;;;;;;;16.75;10.15;;;5.30;93.40;;;5.50;77.13;100463.88;4977295;28;20855;-80
2021/01/06 05:34:58;;;;;;;16.38;10.43;;;5.30;93.70;;;5.51;77.15;100473.69;4976984;28;20047;-80
2021/01/06 05:37:26;;;;;;;18.38;11.07;;;5.20;93.50;;;5.50;76.76;100466.59;4976514;28;20109;-79
2021/01/06 05:39:56;;;;;;;17.48;10.05;;;5.20;93.20;;;5.47;77.11;100467.75;4959476;28;20418;-79
2021/01/06 05:42:26;;;;;;;19.88;11.75;;;5.20;93.60;;;5.51;77.00;100470.16;4977112;28;20070;-79
2021/01/06 05:44:57;;;;;;;16.20;10.48;;;5.20;93.50;;;5.49;76.72;100471.13;4976352;28;20062;-80
2021/01/06 05:47:29;;;;;;;;;;;5.10;93.20;;;5.48;77.30;100468.59;4978782;28;20062;-80
2021/01/06 05:50:00;;;;;;;;;;;5.10;93.60;;;5.46;76.65;100465.19;4977275;28;19949;-80
2021/01/06 05:52:30;;;;;;;16.33;10.43;;;5.20;93.50;;;5.44;76.73;100473.44;4976408;28;19988;-80
2021/01/06 05:55:00;;;;;;;18.23;10.93;;;5.10;93.30;;;5.44;77.07;100470.75;4977124;28;20055;-80
2021/01/06 05:57:42;;;;;;;17.27;10.93;;;5.10;93.50;;;5.38;77.01;100471.34;4958629;28;20153;-78
2021/01/06 06:00:45;;;;;;;18.10;10.82;;;5.20;93.70;;;5.43;76.86;100468.22;4975488;28;20057;-79
2021/01/06 06:04:00;;;;;;;20.08;11.25;;;5.20;93.30;;;5.44;77.18;100465.34;4976026;28;20088;-79
2021/01/06 06:07:05;;;;;;;20.48;12.10;;;5.20;93.40;;;5.44;77.19;100476.13;4980267;28;20109;-79
2021/01/06 06:10:01;;;;;;;16.30;10.45;;;5.30;93.50;;;5.45;76.43;100468.91;4989301;28;20085;-79
2021/01/06 06:13:03;;;;;;;19.42;10.88;;;5.20;93.00;;;5.45;76.75;100468.91;4961665;28;20531;-80
2021/01/06 06:16:06;;;;;;;;;;;5.20;92.80;;;5.45;76.58;100469.75;4995377;28;20081;-79
2021/01/06 06:19:14;;;;;;;17.58;10.57;;;5.30;93.10;;;5.42;76.56;100467.34;4994995;28;20386;-79
2021/01/06 06:21:54;;;;;;;18.25;11.05;;;5.20;92.70;;;5.42;76.52;100470.03;4993298;28;20054;-80
2021/01/06 06:24:39;;;;;;;18.95;11.68;;;5.20;92.10;;;5.43;76.36;100471.75;4995210;28;20180;-79
2021/01/06 06:27:40;;;;;;;17.27;11.70;;;5.20;92.30;;;5.42;76.38;100469.22;4994512;28;20042;-79
2021/01/06 06:30:33;;;;;;;17.63;11.63;;;5.20;92.70;;;5.38;76.57;100474.06;4995785;28;20584;-79
2021/01/06 06:33:01;;;;;;;18.65;11.43;;;5.20;92.90;;;5.43;76.59;100476.31;4995632;28;20038;-79
2021/01/06 06:35:33;;;;;;;17.42;11.13;;;5.20;92.50;;;5.43;76.29;100471.75;4993826;28;20483;-77
2021/01/06 06:38:03;;;;;;;20.35;11.52;;;5.20;92.50;;;5.37;76.73;100472.38;4993498;28;20073;-77
2021/01/06 06:41:00;;;;;;;17.40;11.38;;;5.20;92.70;;;5.41;76.35;100470.22;4991209;28;20073;-78
2021/01/06 06:43:47;;;;;;;19.00;11.40;;;5.20;92.40;;;5.35;76.57;100466.28;4994348;28;20046;-77
2021/01/06 06:46:33;;;;;;;19.35;12.27;;;5.20;92.60;;;5.43;76.63;100477.16;4994193;28;20062;-78
2021/01/06 06:49:20;;;;;;;17.98;11.55;;;5.30;92.70;;;5.44;76.60;100478.84;4994125;28;20062;-78
2021/01/06 06:51:55;;;;;;;20.88;12.52;;;5.30;92.90;;;5.43;76.71;100479.84;4994492;28;20070;-79
2021/01/06 06:54:34;;;;;;;20.55;12.63;;;5.30;92.70;;;5.43;76.49;100482.56;4994241;28;20154;-78
2021/01/06 06:57:07;;;;;;;21.77;12.80;;;5.30;92.50;;;5.44;76.25;100473.44;4989376;28;20644;-78
2021/01/06 06:59:49;;;;;;;21.83;13.20;;;5.30;92.40;;;5.48;76.39;100474.84;4974703;28;20548;-79
2021/01/06 07:02:16;;;;;;;20.45;12.82;;;5.30;92.20;;;5.48;76.03;100477.56;4975648;28;20069;-79
2021/01/06 07:04:47;;;;;;;21.98;13.88;;;5.30;92.30;;;5.45;76.08;100480.56;5008701;28;20046;-79
2021/01/06 07:07:39;;;;;;;;;;;5.30;92.10;;;5.45;76.00;100485.94;5013981;28;20052;-79
2021/01/06 07:10:16;;;;;;;19.70;12.15;;;5.30;92.00;;;5.43;75.89;100479.84;4996047;28;19991;-79
2021/01/06 07:12:44;;;;;;;21.90;13.52;;;5.30;92.10;;;5.42;76.40;100475.44;5013975;28;20082;-79
2021/01/06 07:15:24;;;;;;;22.27;12.80;;;5.30;92.30;;;5.44;76.24;100470.75;5001600;28;20129;-79
2021/01/06 07:17:51;;;;;;;22.73;12.82;;;5.30;92.10;;;5.45;76.18;100472.44;4994125;28;20034;-79
2021/01/06 07:20:37;;;;;;;21.90;13.30;;;5.30;92.00;;;5.48;75.92;100474.84;4977839;28;20117;-80
2021/01/06 07:23:16;;;;;;;20.27;12.63;;;5.30;92.00;;;5.46;75.77;100481.38;4995548;28;20146;-80
2021/01/06 07:25:46;;;;;;;22.75;12.93;;;5.30;91.50;;;5.47;75.74;100483.94;4994895;28;20490;-80
2021/01/06 07:28:18;;;;;;;21.58;12.45;;;5.20;91.70;;;5.47;75.51;100483.94;4995109;28;20046;-79
2021/01/06 07:30:51;;;;;;;20.85;12.20;;;5.20;91.40;;;5.48;75.85;100480.25;4994118;28;20076;-79
2021/01/06 07:33:34;;;;;;;19.58;12.43;;;5.30;91.80;;;5.50;75.28;100482.78;4980527;28;20050;-80
2021/01/06 07:36:12;;;;;;;20.30;11.75;;;5.20;91.40;;;5.46;75.49;100481.38;4975231;28;20055;-79
2021/01/06 07:38:40;;;;;;;21.40;12.27;;;5.20;91.50;;;5.44;75.53;100484.25;4974892;28;20058;-80
2021/01/06 07:41:08;;;;;;;19.77;11.55;;;5.20;91.50;;;5.48;75.41;100484.78;4975437;28;20101;-79
2021/01/06 07:43:44;;;;;;;21.70;12.57;;;5.20;91.10;;;5.51;75.27;100489.06;4992614;28;20125;-81
2021/01/06 07:46:19;;;;;;;19.13;11.93;;;5.50;91.50;;;5.47;75.41;100483.94;4989183;28;20061;-79
2021/01/06 07:49:10;;;;;;;20.52;13.25;;;5.30;91.40;;;5.50;74.73;100498.97;4975017;28;20070;-79
2021/01/06 07:51:53;;;;;;;18.00;11.15;;;5.30;91.20;;;5.44;74.74;100500.44;4992487;28;20065;-80
2021/01/06 07:54:30;;;;;;;19.67;11.50;;;5.20;90.60;;;5.43;74.96;100501.44;4994049;28;20066;-80
2021/01/06 07:57:07;;;;;;;21.48;11.77;;;5.20;90.90;;;5.45;75.26;100507.53;4994167;28;20042;-80
2021/01/06 07:59:49;;;;;;;18.52;11.23;;;5.20;91.00;;;5.44;75.41;100505.81;4994416;28;20069;-80
2021/01/06 08:02:25;;;;;;;18.85;11.60;;;5.20;91.60;;;5.47;75.29;100504.69;4993954;28;20054;-80
2021/01/06 08:05:19;;;;;;;21.25;12.43;;;5.20;91.30;;;5.48;75.09;100504.56;4993923;28;20035;-80
2021/01/06 08:07:46;;;;;;;23.88;13.65;;;5.20;91.40;;;5.49;74.85;100508.94;4974628;28;20043;-80
2021/01/06 08:10:25;;;;;;;17.25;11.55;;;5.20;91.10;;;5.42;75.20;100509.69;4973961;28;20090;-80
2021/01/06 08:12:52;;;;;;;24.80;12.25;;;5.20;91.20;;;5.43;74.86;100514.94;4974837;28;20043;-80
2021/01/06 08:15:29;;;;;;;19.98;12.40;;;5.20;91.20;;;5.46;74.63;100514.66;4974054;28;20110;-80
2021/01/06 08:18:08;;;;;;;17.58;11.73;;;5.30;90.80;;;5.46;74.87;100511.94;4957043;28;20050;-80
2021/01/06 08:20:40;;;;;;;20.17;11.50;;;5.30;91.10;;;5.40;75.29;100520.63;4976092;28;20066;-80
2021/01/06 08:23:26;;;;;;;20.23;11.88;;;5.20;90.80;;;5.37;75.13;100515.56;4983331;28;20503;-80
2021/01/06 08:26:02;;;;;;;20.70;11.50;;;5.20;90.70;;;5.44;75.17;100505.81;4974055;28;20491;-80
2021/01/06 08:28:32;;;;;;;19.30;11.50;;;5.30;90.80;;;5.48;75.18;100509.94;4974434;28;20109;-80
2021/01/06 08:31:09;;;;;;;19.92;11.82;;;5.30;90.60;;;5.51;74.71;100513.34;4973823;28;20045;-80
2021/01/06 08:33:50;;;;;;;21.45;12.05;;;5.30;90.30;;;5.49;74.41;100514.31;4974086;28;20492;-80
2021/01/06 08:36:27;;;;;;;21.27;11.93;;;5.20;89.90;;;5.49;74.30;100514.31;4973679;28;20050;-80
2021/01/06 08:39:08;;;;;;;20.00;11.95;;;5.20;90.00;;;5.52;73.79;100515.03;4957832;28;20054;-80
2021/01/06 08:41:36;;;;;;;18.90;11.65;;;5.20;90.00;;;5.51;74.03;100519.59;4976092;28;20097;-80
2021/01/06 08:44:05;;;;;;;19.05;11.73;;;5.20;90.00;;;5.46;74.35;100516.47;4993887;28;20049;-80
2021/01/06 08:46:34;;;;;;;20.73;11.68;;;5.20;90.30;;;5.46;73.99;100517.34;4992779;28;20057;-80
2021/01/06 08:49:22;;;;;;;20.35;11.48;;;5.20;90.00;;;5.40;74.10;100517.94;4992080;28;20053;-79
2021/01/06 08:51:49;;;;;;;22.77;12.35;;;5.20;90.00;;;5.43;73.81;100512.25;4993503;28;20049;-79
2021/01/06 08:54:29;;;;;;;19.48;12.30;;;5.30;89.60;;;5.45;74.18;100512.09;4993179;28;20045;-79
2021/01/06 08:57:05;;;;;;;20.55;11.88;;;5.20;90.00;;;5.45;73.93;100518.34;4977656;28;20419;-80
2021/01/06 08:59:37;;;;;;;20.13;12.10;;;5.30;89.60;;;5.50;73.70;100515.16;4974358;28;20137;-80
2021/01/06 09:02:18;;;;;;;21.45;12.40;;;5.20;89.90;;;5.52;74.24;100513.19;4979649;28;20050;-80
2021/01/06 09:04:46;;;;;;;24.05;12.93;;;5.30;90.20;;;5.42;73.94;100517.78;4993410;28;20530;-80
2021/01/06 09:07:20;;;;;;;19.85;12.20;;;5.30;90.00;;;5.44;74.28;100516.63;4975269;28;20477;-80
2021/01/06 09:10:10;;;;;;;20.20;12.13;;;5.30;89.90;;;5.44;74.19;100515.78;4993180;28;20058;-80
2021/01/06 09:12:55;;;;;;;21.20;12.45;;;5.30;90.00;;;5.47;74.12;100519.03;4993753;28;20046;-80
2021/01/06 09:15:35;;;;;;;19.92;12.20;;;5.30;90.00;;;5.50;73.69;100520.56;4986122;28;20050;-80
2021/01/06 09:18:14;;;;;;;20.42;13.02;;;5.40;89.60;;;5.49;73.50;100525.13;4974031;28;20129;-79
2021/01/06 09:21:06;;;;;;;23.35;13.27;;;5.30;89.00;;;5.46;74.12;100528.16;4974525;28;20051;-80
2021/01/06 09:23:33;;;;;;;20.75;11.90;;;5.30;89.30;;;5.47;72.65;100527.13;4989224;28;20050;-79
2021/01/06 09:26:03;;;;;;;22.77;12.98;;;5.20;88.00;;;5.45;73.09;100518.34;4993131;28;20050;-79
2021/01/06 09:28:34;;;;;;;23.13;13.93;;;5.20;88.90;;;5.48;73.04;100531.53;4993289;28;20538;-79
2021/01/06 09:31:03;;;;;;;24.10;14.07;;;5.30;89.20;;;5.44;73.55;100522.03;4993395;28;20050;-80
2021/01/06 09:33:35;;;;;;;23.05;13.88;;;5.20;89.30;;;5.43;73.01;100536.53;4992498;28;20058;-79
2021/01/06 09:36:03;;;;;;;24.50;13.25;;;5.20;88.90;;;5.44;73.34;100530.13;4992706;28;20105;-80
2021/01/06 09:38:35;;;;;;;22.15;13.43;;;5.20;88.90;;;5.48;73.02;100534.25;4992748;28;20054;-80
2021/01/06 09:41:07;;;;;;;23.73;13.85;;;5.20;88.90;;;5.46;73.12;100529.97;4992582;28;20042;-80
2021/01/06 09:43:38;;;;;;;23.52;14.52;;;5.20;89.30;;;5.47;73.61;100531.69;4993161;28;20093;-79
2021/01/06 09:46:16;;;;;;;23.98;14.13;;;5.20;89.40;;;5.42;73.31;100529.41;4992113;28;20050;-79
2021/01/06 09:48:52;;;;;;;26.67;15.00;;;5.20;89.20;;;5.43;73.33;100531.13;4990773;28;20434;-79
2021/01/06 09:51:20;;;;;;;29.90;13.45;;;5.30;89.50;;;5.33;73.56;100532.19;4989272;28;20809;-79
2021/01/06 09:53:52;;;;;;;26.27;14.05;;;5.30;89.20;;;5.38;73.47;100532.59;4992746;28;20533;-79
2021/01/06 09:56:22;;;;;;;23.90;13.35;;;5.30;88.70;;;5.43;73.01;100541.09;4992390;28;20046;-79
2021/01/06 09:58:50;;;;;;;23.52;13.32;;;5.30;88.40;;;5.45;72.79;100537.22;4992209;28;20193;-79
2021/01/06 10:01:33;;;;;;;20.70;12.52;;;5.20;88.10;;;5.47;72.99;100535.22;4994627;28;20042;-79
2021/01/06 10:04:20;;;;;;;24.45;12.32;;;5.20;88.30;;;5.47;72.24;100529.81;4996472;28;20046;-79
2021/01/06 10:07:01;;;;;;;22.27;11.57;;;5.20;87.90;;;5.46;72.35;100536.25;4994142;28;20050;-79
2021/01/06 10:09:38;;;;;;;;;;;5.20;88.00;;;5.46;72.08;100530.84;4992153;28;20046;-80
2021/01/06 10:12:45;;;;;;;21.70;12.13;;;5.20;87.60;;;5.44;72.12;100532.81;5000232;28;19983;-80
2021/01/06 10:15:51;;;;;;;23.38;12.88;;;5.20;88.00;;;5.43;72.50;100530.28;4969871;28;20046;-79
2021/01/06 10:18:48;;;;;;;21.80;12.88;;;5.20;88.30;;;5.32;73.10;100523.25;4997740;28;20050;-80
2021/01/06 10:21:25;;;;;;;23.42;12.20;;;5.20;88.40;;;5.39;72.58;100524.34;4987448;28;20046;-79
2021/01/06 10:24:17;;;;;;;19.95;11.65;;;5.10;88.10;;;5.40;72.32;100523.31;4999168;28;20039;-80
2021/01/06 10:26:53;;;;;;;;;;;5.20;87.80;;;5.36;71.91;100524.63;5009672;28;20049;-79
2021/01/06 10:29:33;;;;;;;18.30;11.20;;;5.20;87.50;;;5.37;71.37;100520.06;4998265;28;19925;-80
2021/01/06 10:32:07;;;;;;;18.70;11.15;;;5.10;87.00;;;5.37;71.43;100520.94;5016039;28;20052;-80
2021/01/06 10:34:42;;;;;;;22.08;12.43;;;5.10;87.40;;;5.37;71.10;100520.06;4999692;28;20050;-80
2021/01/06 10:37:22;;;;;;;21.58;12.45;;;5.10;86.60;;;5.37;71.10;100514.69;4984958;28;20030;-80
2021/01/06 10:39:52;;;;;;;20.57;12.03;;;5.00;87.00;;;5.40;71.30;100515.22;5014857;28;20104;-80
2021/01/06 10:42:36;;;;;;;19.00;12.15;;;5.20;87.50;;;5.41;71.06;100508.84;4997296;28;20128;-80
2021/01/06 10:45:11;;;;;;;19.67;12.70;;;5.10;87.20;;;5.41;70.84;100503.44;4995123;28;20721;-80
2021/01/06 10:47:52;;;;;;;24.38;12.65;;;5.00;86.90;;;5.41;70.97;100499.91;4996090;28;20057;-80
2021/01/06 10:50:46;;;;;;;;;;;5.10;87.20;;;5.35;71.74;100503.19;4996117;28;20046;-80